Time;durP1;ratioP1;P1;durP2;ratioP2;P2;SDS_P1;SDS_P2;PMS_P1;PMS_P2;Temp;Humidity;BMP_temperature;BMP_pressure;BME280_temperature;BME280_humidity;BME280_pressure;Samples;Min_cycle;Max_cycle;Signal;HPM_P1;HPM_P2
2022/01/11 00:01:11;;;;;;;39.47;23.47;;;;;;;;;;4906058;29;20216;-90
2022/01/11 00:03:45;;;;;;;42.23;27.10;;;;;;;;;;4906517;29;20324;-89
2022/01/11 00:06:27;;;;;;;42.63;28.43;;;;;;;;;;4905907;29;20215;-89
2022/01/11 00:09:00;;;;;;;47.50;30.43;;;;;;;;;;4905958;29;20209;-89
2022/01/11 00:11:29;;;;;;;46.60;27.23;;;;;;;;;;4905950;29;20204;-90
2022/01/11 00:13:58;;;;;;;47.47;27.43;;;;;;;;;;4905805;29;20301;-90
2022/01/11 00:16:27;;;;;;;33.43;17.93;;;;;;;;;;4906238;29;20215;-90
2022/01/11 00:18:58;;;;;;;46.43;29.17;;;;;;;;;;4906395;29;20204;-89
2022/01/11 00:21:26;;;;;;;41.83;27.93;;;;;;;;;;4905988;29;20267;-89
2022/01/11 00:26:40;;;;;;;36.10;22.23;;;;;;;;;;4905743;29;20260;-89
2022/01/11 00:29:09;;;;;;;45.57;28.60;;;;;;;;;;4905990;29;20205;-89
2022/01/11 00:31:40;;;;;;;33.70;19.20;;;;;;;;;;4906444;29;20248;-90
2022/01/11 00:34:08;;;;;;;49.90;30.10;;;;;;;;;;4905372;29;20254;-89
2022/01/11 00:36:42;;;;;;;40.00;24.20;;;;;;;;;;4905836;29;20252;-90
2022/01/11 00:39:10;;;;;;;55.50;33.53;;;;;;;;;;4906065;29;20216;-89
2022/01/11 00:41:39;;;;;;;51.33;29.10;;;;;;;;;;4905850;29;20213;-89
2022/01/11 00:44:08;;;;;;;37.43;24.23;;;;;;;;;;4905307;29;20224;-90
2022/01/11 00:46:38;;;;;;;57.73;34.87;;;;;;;;;;4905591;29;20252;-90
2022/01/11 00:49:08;;;;;;;37.33;19.50;;;;;;;;;;4905749;29;20212;-90
2022/01/11 00:51:37;;;;;;;53.63;31.47;;;;;;;;;;4905619;29;20240;-90
2022/01/11 00:54:05;;;;;;;46.40;25.00;;;;;;;;;;4905954;29;20244;-90
2022/01/11 00:56:34;;;;;;;58.77;31.20;;;;;;;;;;4905865;29;20244;-90
2022/01/11 00:59:02;;;;;;;54.13;30.97;;;;;;;;;;4905955;29;20216;-90
2022/01/11 01:01:37;;;;;;;52.03;27.30;;;;;;;;;;4905786;29;20272;-89
2022/01/11 01:04:08;;;;;;;31.53;17.03;;;;;;;;;;4905241;29;20295;-90
2022/01/11 01:06:39;;;;;;;41.73;21.67;;;;;;;;;;4905713;29;20213;-90
2022/01/11 01:09:07;;;;;;;31.13;18.30;;;;;;;;;;4904799;29;20209;-89
2022/01/11 01:11:36;;;;;;;53.33;28.40;;;;;;;;;;4905236;29;20237;-89
2022/01/11 01:14:04;;;;;;;60.83;32.93;;;;;;;;;;4904977;29;20280;-90
2022/01/11 01:16:33;;;;;;;59.23;31.77;;;;;;;;;;4905386;29;20224;-90
2022/01/11 01:19:01;;;;;;;64.63;33.87;;;;;;;;;;4904521;29;20230;-89
2022/01/11 01:21:36;;;;;;;35.87;20.17;;;;;;;;;;4904634;29;20209;-90
2022/01/11 01:24:05;;;;;;;67.83;34.93;;;;;;;;;;4905307;29;20238;-90
2022/01/11 01:26:38;;;;;;;62.23;31.17;;;;;;;;;;4904768;29;20284;-90
2022/01/11 01:29:07;;;;;;;33.17;19.90;;;;;;;;;;4904284;29;20293;-89
2022/01/11 01:31:35;;;;;;;47.70;24.43;;;;;;;;;;4905184;29;20200;-90
2022/01/11 01:34:04;;;;;;;61.00;28.10;;;;;;;;;;4904505;29;20233;-90
2022/01/11 01:36:34;;;;;;;65.20;37.47;;;;;;;;;;4905276;29;20213;-89
2022/01/11 01:39:02;;;;;;;59.50;31.43;;;;;;;;;;4905492;29;20226;-89
2022/01/11 01:41:31;;;;;;;67.60;38.53;;;;;;;;;;4905449;29;20276;-90
2022/01/11 01:44:02;;;;;;;55.97;34.03;;;;;;;;;;4904609;29;20209;-90
2022/01/11 01:46:31;;;;;;;59.97;29.57;;;;;;;;;;4904996;29;20223;-89
2022/01/11 01:49:01;;;;;;;62.73;34.87;;;;;;;;;;4904418;29;20229;-89
2022/01/11 01:51:30;;;;;;;59.90;36.83;;;;;;;;;;4905086;29;20213;-90
2022/01/11 01:54:01;;;;;;;73.63;42.17;;;;;;;;;;4905207;29;20212;-89
2022/01/11 01:56:30;;;;;;;72.53;42.93;;;;;;;;;;4904522;29;20296;-89
2022/01/11 01:58:58;;;;;;;60.80;34.27;;;;;;;;;;4905023;29;20210;-90
2022/01/11 02:01:27;;;;;;;63.37;30.97;;;;;;;;;;4904231;29;20206;-89
2022/01/11 02:03:56;;;;;;;39.27;18.77;;;;;;;;;;4903932;29;20245;-89
2022/01/11 02:06:24;;;;;;;61.97;34.13;;;;;;;;;;4904267;29;20208;-89
2022/01/11 02:08:53;;;;;;;68.90;38.83;;;;;;;;;;4904305;29;20311;-90
2022/01/11 02:11:24;;;;;;;71.63;39.10;;;;;;;;;;4903644;29;20272;-90
2022/01/11 02:13:52;;;;;;;51.70;26.47;;;;;;;;;;4904401;29;20237;-90
2022/01/11 02:16:22;;;;;;;72.67;40.97;;;;;;;;;;4904337;29;20209;-90
2022/01/11 02:18:51;;;;;;;58.00;33.27;;;;;;;;;;4904142;29;20206;-90
2022/01/11 02:21:21;;;;;;;49.03;24.43;;;;;;;;;;4904488;29;20241;-89
2022/01/11 02:23:50;;;;;;;44.50;23.67;;;;;;;;;;4903776;29;20338;-89
2022/01/11 02:26:19;;;;;;;67.40;41.17;;;;;;;;;;4904588;29;20216;-89
2022/01/11 02:28:47;;;;;;;61.20;39.50;;;;;;;;;;4903878;29;20262;-90
2022/01/11 02:31:16;;;;;;;40.00;19.47;;;;;;;;;;4904182;29;20205;-90
2022/01/11 02:33:46;;;;;;;58.10;33.37;;;;;;;;;;4904212;29;20241;-89
2022/01/11 02:36:15;;;;;;;63.17;37.63;;;;;;;;;;4904200;29;20218;-89
2022/01/11 02:38:46;;;;;;;60.43;36.13;;;;;;;;;;4904255;29;20277;-90
2022/01/11 02:41:14;;;;;;;70.73;43.27;;;;;;;;;;4906833;29;20212;-89
2022/01/11 02:43:43;;;;;;;62.27;34.17;;;;;;;;;;4907795;29;20237;-89
2022/01/11 02:46:12;;;;;;;59.40;33.03;;;;;;;;;;4907510;29;20213;-90
2022/01/11 02:48:40;;;;;;;36.70;20.43;;;;;;;;;;4907473;29;20298;-90
2022/01/11 02:51:09;;;;;;;66.20;39.97;;;;;;;;;;4908297;29;20213;-89
2022/01/11 02:53:40;;;;;;;42.40;23.40;;;;;;;;;;4907768;29;20248;-89
2022/01/11 02:56:10;;;;;;;63.73;35.27;;;;;;;;;;4907167;29;20263;-89
2022/01/11 02:58:38;;;;;;;64.93;33.40;;;;;;;;;;4906874;29;20217;-89
2022/01/11 03:01:07;;;;;;;51.80;31.13;;;;;;;;;;4907331;29;20293;-90
2022/01/11 03:03:37;;;;;;;52.73;26.10;;;;;;;;;;4907423;29;20233;-90
2022/01/11 03:06:06;;;;;;;68.90;39.03;;;;;;;;;;4907420;29;20213;-89
2022/01/11 03:08:35;;;;;;;64.63;35.83;;;;;;;;;;4907321;29;20241;-90
2022/01/11 03:11:05;;;;;;;66.20;37.10;;;;;;;;;;4907751;29;20228;-89
2022/01/11 03:13:36;;;;;;;66.27;38.00;;;;;;;;;;4907388;29;20232;-89
2022/01/11 03:16:04;;;;;;;77.00;46.63;;;;;;;;;;4907354;29;20225;-90
2022/01/11 03:18:33;;;;;;;76.13;43.23;;;;;;;;;;4907431;29;20211;-90
2022/01/11 03:21:01;;;;;;;78.60;42.47;;;;;;;;;;4907143;29;20209;-90
2022/01/11 03:23:30;;;;;;;58.40;34.17;;;;;;;;;;4907228;29;20237;-89
2022/01/11 03:26:01;;;;;;;82.73;45.17;;;;;;;;;;4907915;29;20202;-89
2022/01/11 03:28:32;;;;;;;82.60;44.70;;;;;;;;;;4907008;29;20400;-89
2022/01/11 03:31:02;;;;;;;78.60;49.73;;;;;;;;;;4906722;29;20246;-90
2022/01/11 03:33:30;;;;;;;87.17;48.00;;;;;;;;;;4906965;29;20243;-90
2022/01/11 03:35:59;;;;;;;50.80;27.67;;;;;;;;;;4906818;29;20276;-89
2022/01/11 03:38:30;;;;;;;79.83;39.30;;;;;;;;;;4906442;29;20201;-90
2022/01/11 03:40:58;;;;;;;86.03;44.93;;;;;;;;;;4907160;29;20234;-90
2022/01/11 03:43:26;;;;;;;87.87;44.47;;;;;;;;;;4907142;29;20245;-89
2022/01/11 03:45:55;;;;;;;95.37;48.47;;;;;;;;;;4906502;29;20215;-89
2022/01/11 03:48:25;;;;;;;84.23;46.40;;;;;;;;;;4906697;29;20234;-90
2022/01/11 03:50:55;;;;;;;100.97;48.73;;;;;;;;;;4906079;29;20235;-90
2022/01/11 03:53:28;;;;;;;88.30;41.93;;;;;;;;;;4906259;29;20213;-89
2022/01/11 03:56:11;;;;;;;110.17;64.03;;;;;;;;;;4906954;29;20201;-89
2022/01/11 03:58:40;;;;;;;106.53;58.10;;;;;;;;;;4906906;29;20210;-90
2022/01/11 04:01:08;;;;;;;97.00;51.67;;;;;;;;;;4906342;29;20242;-90
2022/01/11 04:03:38;;;;;;;81.80;45.60;;;;;;;;;;4906960;29;20230;-90
2022/01/11 04:06:07;;;;;;;118.47;67.07;;;;;;;;;;4905819;29;20244;-90
2022/01/11 04:08:35;;;;;;;112.87;64.90;;;;;;;;;;4905904;29;20232;-89
2022/01/11 04:11:05;;;;;;;92.93;42.47;;;;;;;;;;4906515;29;20273;-89
2022/01/11 04:13:33;;;;;;;80.37;38.57;;;;;;;;;;4906144;29;20215;-90
2022/01/11 04:16:02;;;;;;;96.80;43.00;;;;;;;;;;4905805;29;20222;-89
2022/01/11 04:18:30;;;;;;;69.03;31.93;;;;;;;;;;4906406;29;20234;-90
2022/01/11 04:21:00;;;;;;;100.00;56.30;;;;;;;;;;4906482;29;20244;-90
2022/01/11 04:23:28;;;;;;;66.67;33.33;;;;;;;;;;4906563;29;20217;-89
2022/01/11 04:25:57;;;;;;;60.43;30.43;;;;;;;;;;4906335;29;20241;-89
2022/01/11 04:28:25;;;;;;;91.27;49.47;;;;;;;;;;4905601;29;20221;-89
2022/01/11 04:30:57;;;;;;;71.33;32.77;;;;;;;;;;4905819;29;20206;-89
2022/01/11 04:33:27;;;;;;;83.03;44.70;;;;;;;;;;4905684;29;20242;-89
2022/01/11 04:35:55;;;;;;;76.67;43.27;;;;;;;;;;4906080;29;20233;-90
2022/01/11 04:38:26;;;;;;;89.60;44.50;;;;;;;;;;4905658;29;20213;-89
2022/01/11 04:40:54;;;;;;;88.30;47.20;;;;;;;;;;4905338;29;20250;-89
2022/01/11 04:43:23;;;;;;;87.33;48.93;;;;;;;;;;4905239;29;20241;-89
2022/01/11 04:45:52;;;;;;;89.10;45.47;;;;;;;;;;4905905;29;20206;-89
2022/01/11 04:48:20;;;;;;;77.03;43.73;;;;;;;;;;4905387;29;20217;-89
2022/01/11 04:50:48;;;;;;;98.00;60.43;;;;;;;;;;4905349;29;20238;-89
2022/01/11 04:53:17;;;;;;;94.53;48.53;;;;;;;;;;4905639;29;20242;-89
2022/01/11 04:55:47;;;;;;;78.80;37.97;;;;;;;;;;4905311;29;20212;-89
2022/01/11 04:58:15;;;;;;;103.10;55.93;;;;;;;;;;4905914;29;20226;-90
2022/01/11 05:00:43;;;;;;;79.80;40.30;;;;;;;;;;4905157;29;20201;-89
2022/01/11 05:03:12;;;;;;;88.60;52.93;;;;;;;;;;4905151;29;20226;-89
2022/01/11 05:05:40;;;;;;;101.43;54.83;;;;;;;;;;4904978;29;20289;-89
2022/01/11 05:08:09;;;;;;;66.67;31.93;;;;;;;;;;4905154;29;20214;-89
2022/01/11 05:10:42;;;;;;;96.50;51.57;;;;;;;;;;4903990;29;20260;-89
2022/01/11 05:13:12;;;;;;;98.83;57.70;;;;;;;;;;4902583;29;20204;-89
2022/01/11 05:15:41;;;;;;;94.37;48.20;;;;;;;;;;4902779;29;20200;-89
2022/01/11 05:18:10;;;;;;;89.93;47.93;;;;;;;;;;4902666;29;20224;-89
2022/01/11 05:20:39;;;;;;;93.53;56.27;;;;;;;;;;4903210;29;20226;-89
2022/01/11 05:23:08;;;;;;;71.50;36.97;;;;;;;;;;4902919;29;20209;-90
2022/01/11 05:25:37;;;;;;;72.40;34.33;;;;;;;;;;4903046;29;20330;-89
2022/01/11 05:28:06;;;;;;;80.47;41.27;;;;;;;;;;4902847;29;20245;-90
2022/01/11 05:30:36;;;;;;;83.63;42.23;;;;;;;;;;4902520;29;20233;-89
2022/01/11 05:33:04;;;;;;;78.50;41.60;;;;;;;;;;4902070;29;20332;-89
2022/01/11 05:35:32;;;;;;;25.97;9.90;;;;;;;;;;4902938;29;20298;-89
2022/01/11 05:38:02;;;;;;;56.83;27.47;;;;;;;;;;4902589;29;20217;-89
2022/01/11 05:40:30;;;;;;;59.13;26.90;;;;;;;;;;4902341;29;20206;-90
2022/01/11 05:42:59;;;;;;;61.17;37.23;;;;;;;;;;4902521;29;20222;-89
2022/01/11 05:45:27;;;;;;;75.53;36.27;;;;;;;;;;4902411;29;20245;-90
2022/01/11 05:47:58;;;;;;;72.73;37.27;;;;;;;;;;4902220;29;20216;-90
2022/01/11 05:50:26;;;;;;;68.13;42.70;;;;;;;;;;4902668;29;20257;-89
2022/01/11 05:52:54;;;;;;;60.20;31.50;;;;;;;;;;4902301;29;20215;-89
2022/01/11 05:55:23;;;;;;;66.00;38.07;;;;;;;;;;4902120;29;20304;-89
2022/01/11 05:57:51;;;;;;;68.83;40.33;;;;;;;;;;4902283;29;20252;-89
2022/01/11 06:00:21;;;;;;;68.93;36.57;;;;;;;;;;4902911;29;20251;-89
2022/01/11 06:02:54;;;;;;;69.43;46.40;;;;;;;;;;4902264;29;20238;-89
2022/01/11 06:05:24;;;;;;;65.77;42.10;;;;;;;;;;4902351;29;20213;-89
2022/01/11 06:07:53;;;;;;;70.40;41.77;;;;;;;;;;4902054;29;20238;-89
2022/01/11 06:10:21;;;;;;;73.03;40.50;;;;;;;;;;4901732;29;20320;-89
2022/01/11 06:12:49;;;;;;;66.30;38.00;;;;;;;;;;4901652;29;20201;-89
2022/01/11 06:15:18;;;;;;;66.00;39.60;;;;;;;;;;4902757;29;20214;-89
2022/01/11 06:17:46;;;;;;;66.07;34.90;;;;;;;;;;4904883;29;20246;-89
2022/01/11 06:20:15;;;;;;;71.97;40.37;;;;;;;;;;4904464;29;20347;-90
2022/01/11 06:22:45;;;;;;;59.77;33.20;;;;;;;;;;4903853;29;20244;-88
2022/01/11 06:25:13;;;;;;;75.67;46.13;;;;;;;;;;4904522;29;20244;-90
2022/01/11 06:27:42;;;;;;;75.00;43.70;;;;;;;;;;4904382;29;20299;-89
2022/01/11 06:30:15;;;;;;;61.00;34.87;;;;;;;;;;4904857;29;20302;-89
2022/01/11 06:32:44;;;;;;;79.37;48.27;;;;;;;;;;4904195;29;20276;-89
2022/01/11 06:35:13;;;;;;;76.50;43.87;;;;;;;;;;4903651;29;20274;-89
2022/01/11 06:37:42;;;;;;;70.27;42.20;;;;;;;;;;4904456;29;20240;-89
2022/01/11 06:40:12;;;;;;;63.73;30.80;;;;;;;;;;4904730;29;20202;-89
2022/01/11 06:42:41;;;;;;;85.83;50.70;;;;;;;;;;4904599;29;20248;-89
2022/01/11 06:45:10;;;;;;;72.47;39.90;;;;;;;;;;4903615;29;20233;-89
2022/01/11 06:47:39;;;;;;;85.10;46.00;;;;;;;;;;4903352;29;20261;-89
2022/01/11 06:50:09;;;;;;;84.57;43.23;;;;;;;;;;4904034;29;20321;-87
2022/01/11 06:52:38;;;;;;;85.80;55.80;;;;;;;;;;4904567;29;20227;-88
2022/01/11 06:55:08;;;;;;;84.90;57.27;;;;;;;;;;4902490;29;20207;-87
2022/01/11 06:57:41;;;;;;;90.33;61.63;;;;;;;;;;4902415;29;20214;-87
2022/01/11 07:00:10;;;;;;;93.07;52.13;;;;;;;;;;4902043;29;20212;-87
2022/01/11 07:02:39;;;;;;;82.43;52.17;;;;;;;;;;4902196;29;20317;-87
2022/01/11 07:05:08;;;;;;;92.27;55.00;;;;;;;;;;4902427;29;20218;-85
2022/01/11 07:07:37;;;;;;;82.33;53.63;;;;;;;;;;4901899;29;20213;-87
2022/01/11 07:10:06;;;;;;;78.10;52.10;;;;;;;;;;4902045;29;20285;-86
2022/01/11 07:12:34;;;;;;;76.40;50.80;;;;;;;;;;4902153;29;20226;-87
2022/01/11 07:15:04;;;;;;;74.83;52.90;;;;;;;;;;4901934;29;20282;-86
2022/01/11 07:17:33;;;;;;;72.70;47.33;;;;;;;;;;4902305;29;20205;-87
2022/01/11 07:20:02;;;;;;;74.27;51.17;;;;;;;;;;4901845;29;20240;-87
2022/01/11 07:22:30;;;;;;;74.43;46.50;;;;;;;;;;4901302;29;20301;-86
2022/01/11 07:24:59;;;;;;;67.33;43.67;;;;;;;;;;4902023;29;20217;-86
2022/01/11 07:27:27;;;;;;;65.33;43.00;;;;;;;;;;4900761;29;20222;-87
2022/01/11 07:29:56;;;;;;;66.03;46.93;;;;;;;;;;4901740;29;20245;-86
2022/01/11 07:32:27;;;;;;;62.13;45.10;;;;;;;;;;4900833;29;20255;-86
2022/01/11 07:34:55;;;;;;;70.90;46.57;;;;;;;;;;4901665;29;20218;-87
2022/01/11 07:37:26;;;;;;;65.17;46.70;;;;;;;;;;4902146;29;20209;-86
2022/01/11 07:39:54;;;;;;;61.00;39.67;;;;;;;;;;4901354;29;20214;-87
2022/01/11 07:42:23;;;;;;;61.70;42.23;;;;;;;;;;4901826;29;20206;-87
2022/01/11 07:44:53;;;;;;;57.83;38.57;;;;;;;;;;4901668;29;20213;-88
2022/01/11 07:47:24;;;;;;;55.30;34.70;;;;;;;;;;4900977;29;20213;-88
2022/01/11 07:50:00;;;;;;;57.40;34.17;;;;;;;;;;4901228;29;20213;-87
2022/01/11 07:52:35;;;;;;;57.60;43.20;;;;;;;;;;4900642;29;20224;-88
2022/01/11 07:55:14;;;;;;;55.20;34.40;;;;;;;;;;4901205;29;20216;-87
2022/01/11 07:57:48;;;;;;;60.20;39.73;;;;;;;;;;4901253;29;20202;-88
2022/01/11 08:00:18;;;;;;;60.33;41.77;;;;;;;;;;4901394;29;20207;-87
2022/01/11 08:02:46;;;;;;;57.30;36.57;;;;;;;;;;4901155;29;20242;-86
2022/01/11 08:05:18;;;;;;;34.77;20.60;;;;;;;;;;4900602;29;20240;-86
2022/01/11 08:07:47;;;;;;;53.93;33.73;;;;;;;;;;4901264;29;20217;-88
2022/01/11 08:10:18;;;;;;;48.63;33.30;;;;;;;;;;4900826;29;20213;-86
2022/01/11 08:12:51;;;;;;;54.20;37.70;;;;;;;;;;4901159;29;20186;-86
2022/01/11 08:15:20;;;;;;;55.40;39.63;;;;;;;;;;4900682;29;20296;-86
2022/01/11 08:17:49;;;;;;;56.67;38.20;;;;;;;;;;4900982;29;20293;-87
2022/01/11 08:20:19;;;;;;;46.57;30.17;;;;;;;;;;4900633;29;20222;-86
2022/01/11 08:22:48;;;;;;;39.70;24.87;;;;;;;;;;4900967;29;20209;-86
2022/01/11 08:25:17;;;;;;;52.53;36.10;;;;;;;;;;4900631;29;20219;-86
2022/01/11 08:27:45;;;;;;;50.07;33.93;;;;;;;;;;4900789;29;20241;-86
2022/01/11 08:30:14;;;;;;;55.90;41.23;;;;;;;;;;4900648;29;20216;-86
2022/01/11 08:32:42;;;;;;;42.93;29.13;;;;;;;;;;4900039;29;20229;-85
2022/01/11 08:35:11;;;;;;;50.37;32.50;;;;;;;;;;4900836;29;20285;-86
2022/01/11 08:37:41;;;;;;;35.27;22.30;;;;;;;;;;4900099;29;20212;-86
2022/01/11 08:40:11;;;;;;;46.63;30.77;;;;;;;;;;4899704;29;20286;-86
2022/01/11 08:42:40;;;;;;;45.60;28.20;;;;;;;;;;4900465;29;20202;-86
2022/01/11 08:45:09;;;;;;;44.43;29.07;;;;;;;;;;4900103;29;20213;-87
2022/01/11 08:47:38;;;;;;;49.67;34.53;;;;;;;;;;4899839;29;20270;-86
2022/01/11 08:50:07;;;;;;;29.07;19.20;;;;;;;;;;4900420;29;20214;-86
2022/01/11 08:52:36;;;;;;;47.23;32.00;;;;;;;;;;4899664;29;20238;-86
2022/01/11 08:55:07;;;;;;;46.13;29.97;;;;;;;;;;4900068;29;20217;-86
2022/01/11 08:57:36;;;;;;;38.83;24.53;;;;;;;;;;4899778;29;20265;-86
2022/01/11 09:00:06;;;;;;;31.27;23.17;;;;;;;;;;4899672;29;20256;-86
2022/01/11 09:02:35;;;;;;;36.27;25.57;;;;;;;;;;4900995;29;20208;-87
2022/01/11 09:05:04;;;;;;;39.00;22.73;;;;;;;;;;4899452;29;20214;-86
2022/01/11 09:07:32;;;;;;;39.73;28.83;;;;;;;;;;4899484;29;20246;-87
2022/01/11 09:10:01;;;;;;;33.50;22.77;;;;;;;;;;4899999;29;20221;-86
2022/01/11 09:12:31;;;;;;;45.20;27.67;;;;;;;;;;4899285;29;20233;-87
2022/01/11 09:15:00;;;;;;;44.27;31.20;;;;;;;;;;4899494;29;20241;-87
2022/01/11 09:17:28;;;;;;;44.13;29.57;;;;;;;;;;4899719;29;20210;-86
2022/01/11 09:19:57;;;;;;;27.63;17.63;;;;;;;;;;4899619;29;20209;-87
2022/01/11 09:22:26;;;;;;;42.93;27.93;;;;;;;;;;4899653;29;20208;-86
2022/01/11 09:24:55;;;;;;;42.27;29.50;;;;;;;;;;4899399;29;20208;-87
2022/01/11 09:27:23;;;;;;;41.20;30.07;;;;;;;;;;4899330;29;20244;-86
2022/01/11 09:29:53;;;;;;;42.27;26.70;;;;;;;;;;4899375;29;20293;-87
2022/01/11 09:32:22;;;;;;;39.07;27.07;;;;;;;;;;4899155;29;20240;-87
2022/01/11 09:34:51;;;;;;;33.87;21.47;;;;;;;;;;4898723;29;20276;-87
2022/01/11 09:37:19;;;;;;;44.33;33.13;;;;;;;;;;4899340;29;20205;-87
2022/01/11 09:39:48;;;;;;;42.13;30.73;;;;;;;;;;4899173;29;20217;-87
2022/01/11 09:42:17;;;;;;;32.63;21.87;;;;;;;;;;4899095;29;20207;-87
2022/01/11 09:44:47;;;;;;;36.13;25.93;;;;;;;;;;4899078;29;20272;-87
2022/01/11 09:47:17;;;;;;;36.97;27.97;;;;;;;;;;4898681;29;20266;-87
2022/01/11 09:49:46;;;;;;;35.67;25.23;;;;;;;;;;4898194;29;20271;-87
2022/01/11 09:52:15;;;;;;;31.13;20.23;;;;;;;;;;4898830;29;20234;-88
2022/01/11 09:54:47;;;;;;;34.00;24.63;;;;;;;;;;4898920;29;20238;-87
2022/01/11 09:57:16;;;;;;;36.93;28.27;;;;;;;;;;4899102;29;20261;-87
2022/01/11 09:59:45;;;;;;;32.97;22.00;;;;;;;;;;4898933;29;20211;-87
2022/01/11 10:02:14;;;;;;;29.23;21.93;;;;;;;;;;4898992;29;20209;-87
2022/01/11 10:04:44;;;;;;;34.93;22.50;;;;;;;;;;4899056;29;20297;-87
2022/01/11 10:07:14;;;;;;;23.73;16.90;;;;;;;;;;4898756;29;20216;-87
2022/01/11 10:09:44;;;;;;;32.53;22.10;;;;;;;;;;4899185;29;20284;-88
2022/01/11 10:12:13;;;;;;;27.93;19.87;;;;;;;;;;4898824;29;20229;-87
2022/01/11 10:14:48;;;;;;;30.20;19.63;;;;;;;;;;4898881;29;20259;-87
2022/01/11 10:17:18;;;;;;;16.60;10.90;;;;;;;;;;4898574;29;20194;-86
2022/01/11 10:19:48;;;;;;;29.03;21.90;;;;;;;;;;4899001;29;20212;-87
2022/01/11 10:22:18;;;;;;;29.43;25.53;;;;;;;;;;4898933;29;20286;-87
2022/01/11 10:24:47;;;;;;;26.03;17.60;;;;;;;;;;4898411;29;20293;-87
2022/01/11 10:27:17;;;;;;;25.97;20.60;;;;;;;;;;4898435;29;20218;-86
2022/01/11 10:29:47;;;;;;;18.17;12.90;;;;;;;;;;4898428;29;20207;-87
2022/01/11 10:32:18;;;;;;;27.60;23.43;;;;;;;;;;4898564;29;20281;-87
2022/01/11 10:34:49;;;;;;;18.57;10.23;;;;;;;;;;4898164;29;20257;-87
2022/01/11 10:37:35;;;;;;;25.37;20.53;;;;;;;;;;4898873;29;20234;-87
2022/01/11 10:40:06;;;;;;;12.30;7.57;;;;;;;;;;4898589;29;20219;-87
2022/01/11 10:42:38;;;;;;;15.67;11.67;;;;;;;;;;4898857;29;20196;-86
2022/01/11 10:45:07;;;;;;;19.07;12.67;;;;;;;;;;4898669;29;20217;-86
2022/01/11 10:47:37;;;;;;;21.17;16.37;;;;;;;;;;4898810;29;20220;-87
2022/01/11 10:50:09;;;;;;;19.63;14.00;;;;;;;;;;4898827;29;20223;-87
2022/01/11 10:52:38;;;;;;;21.73;17.20;;;;;;;;;;4898652;29;20230;-87
2022/01/11 10:55:07;;;;;;;19.80;13.87;;;;;;;;;;4898459;29;20208;-87
2022/01/11 10:57:38;;;;;;;11.57;8.40;;;;;;;;;;4898665;29;20238;-87
2022/01/11 11:00:17;;;;;;;12.13;8.87;;;;;;;;;;4898609;29;20204;-87
2022/01/11 11:02:49;;;;;;;16.90;13.50;;;;;;;;;;4901109;29;20227;-87
2022/01/11 11:05:23;;;;;;;20.43;18.27;;;;;;;;;;4901028;29;20208;-84
2022/01/11 11:08:02;;;;;;;22.07;15.80;;;;;;;;;;4895708;29;20208;-85
2022/01/11 11:10:35;;;;;;;18.93;16.93;;;;;;;;;;4898801;29;20215;-86
2022/01/11 11:13:06;;;;;;;19.57;16.60;;;;;;;;;;4900512;29;20287;-86
2022/01/11 11:15:38;;;;;;;19.50;15.10;;;;;;;;;;4898008;29;20214;-85
2022/01/11 11:18:22;;;;;;;23.50;9.57;;;;;;;;;;4900777;29;20251;-85
2022/01/11 11:21:00;;;;;;;18.70;15.00;;;;;;;;;;4901096;29;20256;-87
2022/01/11 11:23:28;;;;;;;20.17;15.27;;;;;;;;;;4895673;29;20204;-86
2022/01/11 11:26:03;;;;;;;20.67;17.97;;;;;;;;;;4900509;29;20239;-86
2022/01/11 11:28:34;;;;;;;23.57;16.13;;;;;;;;;;4900635;29;20218;-86
2022/01/11 11:31:02;;;;;;;21.27;14.03;;;;;;;;;;4895672;29;20216;-85
2022/01/11 11:33:31;;;;;;;19.30;15.53;;;;;;;;;;4900191;29;20271;-86
2022/01/11 11:36:02;;;;;;;3.47;3.17;;;;;;;;;;4897194;29;20230;-87
2022/01/11 11:38:33;;;;;;;19.30;13.80;;;;;;;;;;4898948;29;20207;-86
2022/01/11 11:41:02;;;;;;;19.57;13.97;;;;;;;;;;4900594;29;20211;-85
2022/01/11 11:43:31;;;;;;;12.30;6.10;;;;;;;;;;4898604;29;20254;-86
2022/01/11 11:46:00;;;;;;;8.87;7.07;;;;;;;;;;4897605;29;20263;-86
2022/01/11 11:48:32;;;;;;;16.27;13.03;;;;;;;;;;4893402;29;20294;-86
2022/01/11 11:51:06;;;;;;;8.17;4.07;;;;;;;;;;4899568;29;20220;-86
2022/01/11 11:53:41;;;;;;;13.57;9.97;;;;;;;;;;4899663;29;20314;-86
2022/01/11 11:56:17;;;;;;;18.80;13.20;;;;;;;;;;4899560;29;20207;-87
2022/01/11 11:58:50;;;;;;;18.17;14.50;;;;;;;;;;4895218;29;20214;-87
2022/01/11 12:01:42;;;;;;;12.80;7.93;;;;;;;;;;4891428;29;20270;-86
2022/01/11 12:04:14;;;;;;;18.80;15.57;;;;;;;;;;4898473;29;20276;-87
2022/01/11 12:06:55;;;;;;;17.13;12.77;;;;;;;;;;4894579;29;20212;-87
2022/01/11 12:09:45;;;;;;;20.63;15.67;;;;;;;;;;4897785;29;20212;-86
2022/01/11 12:12:16;;;;;;;13.67;11.70;;;;;;;;;;4899505;29;20214;-85
2022/01/11 12:14:45;;;;;;;19.33;12.27;;;;;;;;;;4899740;29;20236;-86
2022/01/11 12:17:24;;;;;;;19.23;10.97;;;;;;;;;;4900030;29;20215;-85
2022/01/11 12:19:54;;;;;;;18.30;14.70;;;;;;;;;;4884504;29;20243;-86
2022/01/11 12:22:31;;;;;;;15.57;13.93;;;;;;;;;;4898201;29;20227;-86
2022/01/11 12:25:05;;;;;;;17.87;12.90;;;;;;;;;;4897729;29;20227;-86
2022/01/11 12:27:56;;;;;;;17.27;13.00;;;;;;;;;;4899521;29;20211;-86
2022/01/11 12:30:26;;;;;;;19.90;14.27;;;;;;;;;;4898925;29;20215;-85
2022/01/11 12:33:12;;;;;;;19.43;14.80;;;;;;;;;;4891744;29;20243;-86
2022/01/11 12:36:00;;;;;;;13.53;8.07;;;;;;;;;;4899310;29;20219;-86
2022/01/11 12:38:39;;;;;;;16.50;13.80;;;;;;;;;;4889621;29;20232;-86
2022/01/11 12:41:29;;;;;;;20.93;16.67;;;;;;;;;;4896644;29;20207;-85
2022/01/11 12:44:21;;;;;;;16.17;11.80;;;;;;;;;;4899358;29;20291;-85
2022/01/11 12:46:51;;;;;;;22.20;14.17;;;;;;;;;;4898847;29;20284;-86
2022/01/11 12:49:22;;;;;;;20.33;13.80;;;;;;;;;;4905642;29;20219;-86
2022/01/11 12:51:57;;;;;;;14.30;12.80;;;;;;;;;;4904660;29;20219;-86
2022/01/11 12:54:33;;;;;;;15.90;11.87;;;;;;;;;;4899529;29;20219;-85
2022/01/11 12:57:03;;;;;;;16.57;11.97;;;;;;;;;;4900404;29;20211;-86
2022/01/11 12:59:43;;;;;;;18.77;14.13;;;;;;;;;;4899248;29;20236;-86
2022/01/11 13:02:15;;;;;;;18.40;13.40;;;;;;;;;;4895126;29;20215;-86
2022/01/11 13:04:56;;;;;;;19.77;15.07;;;;;;;;;;4899414;29;20211;-85
2022/01/11 13:07:27;;;;;;;17.43;14.53;;;;;;;;;;4899088;29;20222;-86
2022/01/11 13:10:02;;;;;;;20.37;13.73;;;;;;;;;;4899319;29;20223;-86
2022/01/11 13:12:53;;;;;;;17.73;12.77;;;;;;;;;;4899426;29;20237;-86
2022/01/11 13:15:26;;;;;;;16.60;13.87;;;;;;;;;;4899023;29;20230;-85
2022/01/11 13:18:01;;;;;;;22.10;12.83;;;;;;;;;;4893215;29;20232;-86
2022/01/11 13:20:50;;;;;;;16.23;12.57;;;;;;;;;;4897074;29;20223;-85
2022/01/11 13:23:25;;;;;;;21.30;14.23;;;;;;;;;;4898883;29;20287;-86
2022/01/11 13:25:57;;;;;;;19.03;12.23;;;;;;;;;;4898478;29;20215;-85
2022/01/11 13:28:33;;;;;;;17.47;12.47;;;;;;;;;;4899167;29;20261;-86
2022/01/11 13:31:05;;;;;;;16.90;11.23;;;;;;;;;;4898895;29;20218;-86
2022/01/11 13:33:35;;;;;;;10.40;6.07;;;;;;;;;;4898688;29;20236;-86
2022/01/11 13:36:10;;;;;;;21.40;12.07;;;;;;;;;;4899201;29;20219;-87
2022/01/11 13:38:40;;;;;;;12.90;8.23;;;;;;;;;;4897945;29;20299;-86
2022/01/11 13:41:13;;;;;;;12.43;9.13;;;;;;;;;;4898886;29;20267;-86
2022/01/11 13:44:03;;;;;;;4.23;3.00;;;;;;;;;;4896049;29;20255;-85
2022/01/11 13:46:32;;;;;;;13.67;6.77;;;;;;;;;;4899429;29;20220;-87
2022/01/11 13:49:31;;;;;;;18.07;13.57;;;;;;;;;;4901189;29;20207;-87
2022/01/11 14:02:01;;;;;;;3.50;3.00;;;;;;;;;;4833629;29;20298;-86
2022/01/11 16:43:56;;;;;;;25.63;16.27;;;;;;;;;;6183238;23;20243;-88
2022/01/11 16:46:24;;;;;;;23.50;13.33;;;;;;;;;;6252741;23;20185;-89
2022/01/11 16:48:53;;;;;;;25.20;17.90;;;;;;;;;;6252379;23;20170;-90
2022/01/11 16:51:22;;;;;;;18.53;10.80;;;;;;;;;;6253071;23;20185;-89
2022/01/11 16:53:50;;;;;;;24.70;16.07;;;;;;;;;;6254566;23;20174;-88
2022/01/11 16:56:20;;;;;;;27.07;18.53;;;;;;;;;;6257713;23;20200;-88
2022/01/11 16:58:48;;;;;;;23.40;15.03;;;;;;;;;;6256555;23;20198;-88
2022/01/11 17:01:17;;;;;;;17.53;9.17;;;;;;;;;;6257560;23;20169;-89
2022/01/11 17:03:45;;;;;;;26.87;15.43;;;;;;;;;;6257803;22;20208;-89
2022/01/11 17:06:14;;;;;;;25.50;13.90;;;;;;;;;;6257628;23;20174;-89
2022/01/11 17:08:43;;;;;;;6.87;4.27;;;;;;;;;;6257277;23;20170;-89
2022/01/11 17:11:11;;;;;;;25.63;17.50;;;;;;;;;;6257690;23;20177;-89
2022/01/11 17:13:41;;;;;;;11.63;7.90;;;;;;;;;;6258294;23;20231;-89
2022/01/11 17:16:10;;;;;;;15.33;11.53;;;;;;;;;;6257773;23;20184;-89
2022/01/11 17:18:38;;;;;;;11.50;10.03;;;;;;;;;;6256117;23;20193;-89
2022/01/11 17:21:07;;;;;;;14.97;8.37;;;;;;;;;;6257321;23;20180;-88
2022/01/11 17:23:35;;;;;;;28.70;16.77;;;;;;;;;;6254234;23;20173;-88
2022/01/11 17:26:04;;;;;;;15.40;6.23;;;;;;;;;;6250159;23;20197;-88
2022/01/11 17:28:32;;;;;;;22.27;13.80;;;;;;;;;;6249068;23;20239;-88
2022/01/11 17:31:02;;;;;;;14.33;7.73;;;;;;;;;;6249469;23;20202;-88